Arklow Raider — EIXS — position and weather

sailwx.info

Track history (hours):
 
Tides and Currents Weather Stations Pressure Air Temp Water Temp Dewpoint Dewpoint Depression Visibility Wind Speed Wind Dir Waves Ship Positions

Arklow Raider

Last reported at 2016-Jun-29 08:34 UTC. Time now 2016-Jun-30 05:07 UTC.
Position N 51°34' W 010°21'.

Length 90 m; draft 4 m.

Type: Ship. MMSI: 250001268.

Date/timePositionNaut miles runAvg speedWind from/ knotsBaromVisibWave heightAir tempDewpointWater temp
2016-Jun-29 08:34N 51°34' W 010°21'9 9.0
2016-Jun-29 07:33N 51°30' W 010°08'9 9.0
2016-Jun-29 06:33N 51°26' W 009°55'9 8.8
2016-Jun-29 05:33N 51°22' W 009°42'8 8.2
2016-Jun-29 04:33N 51°22' W 009°29'10 9.9
2016-Jun-29 03:33N 51°25' W 009°14'1111.1
2016-Jun-29 02:33N 51°29' W 008°57'1111.3
2016-Jun-29 01:33N 51°33' W 008°40'1111.1
2016-Jun-29 00:33N 51°38' W 008°25'1110.9
2016-Jun-28 23:33N 51°48' W 008°16'8 8.1
2016-Jun-28 22:33N 51°54' W 008°24'2 2.1
2016-Jun-28 21:31N 51°54' W 008°27'0 0.0
2016-Jun-28 20:31N 51°54' W 008°27'0 0.0
2016-Jun-28 19:31N 51°54' W 008°27'0 0.0
2016-Jun-28 18:31N 51°54' W 008°27'0 0.0
2016-Jun-28 17:28N 51°54' W 008°27'0 0.0
2016-Jun-28 16:31N 51°54' W 008°27'0 0.0
2016-Jun-28 15:28N 51°54' W 008°27'0 0.0
2016-Jun-28 14:28N 51°54' W 008°27'0 0.0
2016-Jun-28 13:31N 51°54' W 008°27'0 0.0
2016-Jun-28 12:31N 51°54' W 008°27'0 0.0
2016-Jun-28 11:31N 51°54' W 008°27'0 0.0
2016-Jun-28 10:31N 51°54' W 008°27'0 0.0
2016-Jun-28 09:31N 51°54' W 008°27'0 0.0
2016-Jun-28 08:22N 51°54' W 008°27'0 0.0
2016-Jun-28 07:31N 51°54' W 008°27'0 0.0
2016-Jun-28 06:22N 51°54' W 008°27'0 0.0
2016-Jun-28 04:31N 51°54' W 008°27'0 0.0
2016-Jun-28 03:31N 51°54' W 008°27'0 0.0
2016-Jun-28 02:31N 51°54' W 008°27'0 0.0
2016-Jun-28 01:31N 51°54' W 008°27'0 0.0
2016-Jun-28 00:25N 51°54' W 008°27'0 0.0
2016-Jun-27 23:28N 51°54' W 008°27'0 0.0
2016-Jun-27 22:31N 51°54' W 008°27'0 0.0
2016-Jun-27 21:31N 51°54' W 008°27'0 0.0
2016-Jun-27 20:31N 51°54' W 008°27'0 0.0
2016-Jun-27 19:31N 51°54' W 008°27'0 0.0
2016-Jun-27 18:31N 51°54' W 008°27'0 0.0
2016-Jun-27 17:28N 51°54' W 008°27'0 0.0
2016-Jun-27 16:31N 51°54' W 008°27'0 0.0
2016-Jun-27 15:31N 51°54' W 008°27'0 0.0
2016-Jun-27 14:31N 51°54' W 008°27'0 0.0
2016-Jun-27 13:31N 51°54' W 008°27'0 0.0
2016-Jun-27 12:31N 51°54' W 008°27'0 0.0
2016-Jun-27 11:31N 51°54' W 008°27'0 0.0
2016-Jun-27 10:28N 51°54' W 008°27'0 0.0
2016-Jun-27 09:31N 51°54' W 008°27'0 0.0
2016-Jun-27 08:31N 51°54' W 008°27'0 0.0
2016-Jun-27 07:25N 51°54' W 008°27'0 0.1
2016-Jun-27 06:31N 51°54' W 008°27'5 5.5
2016-Jun-27 05:33N 51°51' W 008°20'6 6.4
2016-Jun-27 04:33N 51°46' W 008°15'6 6.0
2016-Jun-27 03:33N 51°42' W 008°08'6 6.1
2016-Jun-27 02:33N 51°37' W 008°01'7 7.1
2016-Jun-27 01:33N 51°32' W 007°53'8 8.2
2016-Jun-27 00:33N 51°26' W 007°44'8 7.9
2016-Jun-26 23:29N 51°21' W 007°34'35 8.1
2016-Jun-26 19:06N 50°57' W 006°53'4 7.9
2016-Jun-26 18:33N 50°54' W 006°48'18 8.2
2016-Jun-26 16:21N 50°41' W 006°28'69 8.3
2016-Jun-26 08:05N 49°55' W 005°08'610.5
2016-Jun-26 07:30N 49°56' W 004°58'2211.0
2016-Jun-26 05:32N 50°01' W 004°26'1211.7
2016-Jun-26 04:33N 50°04' W 004°08'1212.2
2016-Jun-26 03:33N 50°07' W 003°50'1212.5
2016-Jun-26 02:33N 50°10' W 003°31'1111.3
2016-Jun-26 01:34N 50°12' W 003°14'1010.3
2016-Jun-26 00:33N 50°14' W 002°58'10 9.6
2016-Jun-25 23:33N 50°15' W 002°43'6610.9
2016-Jun-25 17:31N 50°26' W 001°01'1313.6
2016-Jun-25 16:34N 50°28' W 000°40'1312.4
2016-Jun-25 15:31N 50°30' W 000°20'1111.5
2016-Jun-25 14:34N 50°32' W 000°03'5010.0
2016-Jun-25 09:33N 50°54' E 001°08'1312.5
2016-Jun-25 08:34N 51°02' E 001°23'1212.3
2016-Jun-25 07:34N 51°10' E 001°38'1110.9
2016-Jun-25 06:33N 51°18' E 001°50'10 9.7
2016-Jun-25 05:33N 51°25' E 002°01'1110.8
2016-Jun-25 04:33N 51°21' E 002°16'9 9.3
2016-Jun-25 03:32N 51°23' E 002°31'9 8.8
2016-Jun-25 02:33N 51°23' E 002°45'10 9.5
2016-Jun-25 01:33N 51°24' E 003°00'1010.1
2016-Jun-25 00:33N 51°25' E 003°16'1010.6
2016-Jun-24 23:34N 51°26' E 003°33'9 9.1
2016-Jun-24 22:34N 51°22' E 003°46'3 3.0
2016-Jun-24 21:33N 51°19' E 003°49'2 1.5
2016-Jun-24 20:31N 51°18' E 003°50'0 0.0
2016-Jun-24 19:31N 51°18' E 003°50'0 0.0
2016-Jun-24 18:31N 51°18' E 003°50'0 0.0
2016-Jun-24 17:31N 51°18' E 003°50'0 0.0
2016-Jun-24 16:31N 51°18' E 003°50'0 0.0
2016-Jun-24 15:31N 51°18' E 003°50'0 0.0
2016-Jun-24 14:31N 51°18' E 003°50'0 0.0
2016-Jun-24 13:31N 51°18' E 003°50'0 0.0
2016-Jun-24 12:31N 51°18' E 003°50'0 0.0
2016-Jun-24 11:28N 51°18' E 003°50'0 0.0
2016-Jun-24 10:31N 51°18' E 003°50'0 0.0
2016-Jun-24 09:28N 51°18' E 003°50'0 0.0
2016-Jun-24 08:31N 51°18' E 003°50'0 0.0
2016-Jun-24 07:31N 51°18' E 003°50'0 0.0
2016-Jun-24 06:31N 51°18' E 003°50'0 0.0
2016-Jun-24 04:28N 51°18' E 003°50'0 0.0
2016-Jun-24 03:31N 51°18' E 003°50'0 0.0
2016-Jun-24 02:31N 51°18' E 003°50'0 0.0
2016-Jun-24 01:31N 51°18' E 003°50'0 0.0
2016-Jun-24 00:31N 51°18' E 003°50'0 0.0
2016-Jun-23 23:31N 51°18' E 003°50'0 0.0
2016-Jun-23 22:31N 51°18' E 003°50'0 0.0
2016-Jun-23 21:25N 51°18' E 003°50'0 0.0
2016-Jun-23 20:28N 51°18' E 003°50'0 0.0
2016-Jun-23 19:31N 51°18' E 003°50'0 0.0
2016-Jun-23 18:31N 51°18' E 003°50'0 0.0
2016-Jun-23 17:31N 51°18' E 003°50'0 0.0
2016-Jun-23 16:31N 51°18' E 003°50'0 0.0
2016-Jun-23 15:31N 51°18' E 003°50'0 0.0
2016-Jun-23 14:28N 51°18' E 003°50'0 0.0
2016-Jun-23 13:31N 51°18' E 003°50'0 0.0
2016-Jun-23 12:31N 51°18' E 003°50'0 0.0
2016-Jun-23 11:31N 51°18' E 003°50'0 0.0
2016-Jun-23 10:28N 51°18' E 003°50'0 0.0
2016-Jun-23 09:31N 51°18' E 003°50'0 0.0
2016-Jun-23 08:31N 51°18' E 003°50'0 0.0
2016-Jun-23 07:28N 51°18' E 003°50'0 0.0
2016-Jun-23 05:31N 51°18' E 003°50'0 0.0
2016-Jun-23 04:31N 51°18' E 003°50'0 0.0
2016-Jun-23 03:25N 51°18' E 003°50'0 0.0
2016-Jun-23 02:28N 51°18' E 003°50'0 0.0
2016-Jun-23 01:31N 51°18' E 003°50'0 0.0
2016-Jun-23 00:28N 51°18' E 003°50'0 0.0
2016-Jun-22 23:31N 51°18' E 003°50'0 0.0
2016-Jun-22 22:22N 51°18' E 003°50'0 0.0
2016-Jun-22 21:25N 51°18' E 003°50'0 0.0
2016-Jun-22 20:25N 51°18' E 003°50'0 0.0
2016-Jun-22 19:22N 51°18' E 003°50'0 0.0
2016-Jun-22 18:31N 51°18' E 003°50'0 0.0
2016-Jun-22 17:25N 51°18' E 003°50'0 0.0
2016-Jun-22 16:22N 51°18' E 003°50'0 0.0
2016-Jun-22 15:28N 51°18' E 003°50'0 0.0
2016-Jun-22 14:31N 51°18' E 003°50'0 0.0
2016-Jun-22 13:31N 51°18' E 003°50'0 0.0
2016-Jun-22 12:31N 51°18' E 003°50'0 0.0
2016-Jun-22 11:28N 51°18' E 003°50'0 0.0
2016-Jun-22 10:31N 51°18' E 003°50'0 0.0
2016-Jun-22 09:31N 51°18' E 003°50'0 0.0
2016-Jun-22 08:31N 51°18' E 003°50'0 0.0
2016-Jun-22 07:31N 51°18' E 003°50'0 0.0
2016-Jun-22 06:34N 51°18' E 003°50'0 0.0
2016-Jun-22 05:28N 51°18' E 003°50'0 0.0
2016-Jun-22 04:31N 51°18' E 003°50'0 0.0
2016-Jun-22 03:31N 51°18' E 003°50'0 0.0
2016-Jun-22 02:31N 51°18' E 003°50'0 0.0
2016-Jun-22 01:31N 51°18' E 003°50'0 0.0
2016-Jun-22 00:28N 51°18' E 003°50'0 0.0
2016-Jun-21 23:33N 51°18' E 003°50'1 1.4
2016-Jun-21 22:34N 51°17' E 003°50'3 2.8
2016-Jun-21 21:33N 51°14' E 003°48'0 0.0
2016-Jun-21 20:33N 51°14' E 003°48'0 0.0
2016-Jun-21 19:33N 51°14' E 003°48'0 0.0
2016-Jun-21 18:33N 51°14' E 003°48'0 0.0
2016-Jun-21 17:33N 51°14' E 003°48'0 0.0
2016-Jun-21 16:33N 51°14' E 003°48'0 0.0
2016-Jun-21 15:33N 51°14' E 003°48'0 0.0
2016-Jun-21 14:33N 51°14' E 003°48'0 0.0
2016-Jun-21 13:33N 51°14' E 003°48'0 0.0
2016-Jun-21 12:33N 51°14' E 003°48'0 0.0
2016-Jun-21 11:33N 51°14' E 003°48'0 0.0
2016-Jun-21 10:33N 51°14' E 003°48'0 0.0
2016-Jun-21 09:33N 51°14' E 003°48'0 0.0
2016-Jun-21 08:33N 51°14' E 003°48'0 0.0
2016-Jun-21 07:33N 51°14' E 003°48'0 0.0
2016-Jun-21 04:33N 51°14' E 003°48'0 0.0
2016-Jun-21 03:33N 51°14' E 003°48'0 0.0
2016-Jun-21 02:33N 51°14' E 003°48'0 0.0
2016-Jun-21 01:33N 51°14' E 003°48'0 0.0
2016-Jun-21 00:33N 51°14' E 003°48'0 0.0
2016-Jun-20 23:33N 51°14' E 003°48'0 0.0
2016-Jun-20 22:33N 51°14' E 003°48'0 0.0
2016-Jun-20 21:33N 51°14' E 003°48'0 0.0
2016-Jun-20 20:33N 51°14' E 003°48'0 0.0
2016-Jun-20 19:33N 51°14' E 003°48'0 0.0
2016-Jun-20 18:33N 51°14' E 003°48'0 0.0
2016-Jun-20 17:31N 51°14' E 003°48'0 0.0
2016-Jun-20 16:31N 51°14' E 003°48'0 0.0
2016-Jun-20 15:31N 51°14' E 003°48'0 0.0
2016-Jun-20 14:31N 51°14' E 003°48'0 0.0
2016-Jun-20 13:31N 51°14' E 003°48'0 0.0
2016-Jun-20 12:31N 51°14' E 003°48'0 0.0
2016-Jun-20 11:31N 51°14' E 003°48'0 0.0
2016-Jun-20 10:31N 51°14' E 003°48'0 0.0
2016-Jun-20 09:31N 51°14' E 003°48'0 0.0
2016-Jun-20 08:31N 51°14' E 003°48'0 0.0
2016-Jun-20 07:31N 51°14' E 003°48'0 0.0
2016-Jun-20 06:31N 51°14' E 003°48'0 0.0
2016-Jun-20 05:31N 51°14' E 003°48'0 0.0
2016-Jun-20 04:31N 51°14' E 003°48'0 0.0
2016-Jun-20 03:31N 51°14' E 003°48'0 0.0
2016-Jun-20 02:31N 51°14' E 003°48'0 0.0
2016-Jun-20 01:31N 51°14' E 003°48'0 0.0
2016-Jun-20 00:31N 51°14' E 003°48'0 0.0
2016-Jun-19 23:31N 51°14' E 003°48'0 0.0
2016-Jun-19 22:31N 51°14' E 003°48'0 0.0
2016-Jun-19 21:31N 51°14' E 003°48'0 0.0
2016-Jun-19 20:31N 51°14' E 003°48'0 0.0
2016-Jun-19 19:31N 51°14' E 003°48'0 0.0
2016-Jun-19 18:31N 51°14' E 003°48'0 0.0
2016-Jun-19 17:31N 51°14' E 003°48'0 0.0
2016-Jun-19 16:31N 51°14' E 003°48'0 0.0
2016-Jun-19 15:31N 51°14' E 003°48'0 0.0
2016-Jun-19 14:31N 51°14' E 003°48'0 0.0
2016-Jun-19 13:31N 51°14' E 003°48'0 0.0
2016-Jun-19 12:31N 51°14' E 003°48'0 0.0
2016-Jun-19 11:31N 51°14' E 003°48'0 0.0
2016-Jun-19 10:31N 51°14' E 003°48'0 0.0
2016-Jun-19 09:31N 51°14' E 003°48'  
Track history (hours):
 
Tides and Currents Weather Stations Pressure Air Temp Water Temp Dewpoint Dewpoint Depression Visibility Wind Speed Wind Dir Waves Ship Positions

Arklow Raider

Last reported at 2016-Jun-29 08:34 UTC. Time now 2016-Jun-30 05:07 UTC.
Position N 51°34' W 010°21'.

Length 90 m; draft 4 m.

Type: Ship. MMSI: 250001268.

Date/timePositionNaut miles runAvg speedWind from/ knotsBaromVisibWave heightAir tempDewpointWater temp
2016-Jun-29 08:34N 51°34' W 010°21'9 9.0
2016-Jun-29 07:33N 51°30' W 010°08'9 9.0
2016-Jun-29 06:33N 51°26' W 009°55'9 8.8
2016-Jun-29 05:33N 51°22' W 009°42'8 8.2
2016-Jun-29 04:33N 51°22' W 009°29'10 9.9
2016-Jun-29 03:33N 51°25' W 009°14'1111.1
2016-Jun-29 02:33N 51°29' W 008°57'1111.3
2016-Jun-29 01:33N 51°33' W 008°40'1111.1
2016-Jun-29 00:33N 51°38' W 008°25'1110.9
2016-Jun-28 23:33N 51°48' W 008°16'8 8.1
2016-Jun-28 22:33N 51°54' W 008°24'2 2.1
2016-Jun-28 21:31N 51°54' W 008°27'0 0.0
2016-Jun-28 20:31N 51°54' W 008°27'0 0.0
2016-Jun-28 19:31N 51°54' W 008°27'0 0.0
2016-Jun-28 18:31N 51°54' W 008°27'0 0.0
2016-Jun-28 17:28N 51°54' W 008°27'0 0.0
2016-Jun-28 16:31N 51°54' W 008°27'0 0.0
2016-Jun-28 15:28N 51°54' W 008°27'0 0.0
2016-Jun-28 14:28N 51°54' W 008°27'0 0.0
2016-Jun-28 13:31N 51°54' W 008°27'0 0.0
2016-Jun-28 12:31N 51°54' W 008°27'0 0.0
2016-Jun-28 11:31N 51°54' W 008°27'0 0.0
2016-Jun-28 10:31N 51°54' W 008°27'0 0.0
2016-Jun-28 09:31N 51°54' W 008°27'0 0.0
2016-Jun-28 08:22N 51°54' W 008°27'0 0.0
2016-Jun-28 07:31N 51°54' W 008°27'0 0.0
2016-Jun-28 06:22N 51°54' W 008°27'0 0.0
2016-Jun-28 04:31N 51°54' W 008°27'0 0.0
2016-Jun-28 03:31N 51°54' W 008°27'0 0.0
2016-Jun-28 02:31N 51°54' W 008°27'0 0.0
2016-Jun-28 01:31N 51°54' W 008°27'0 0.0
2016-Jun-28 00:25N 51°54' W 008°27'0 0.0
2016-Jun-27 23:28N 51°54' W 008°27'0 0.0
2016-Jun-27 22:31N 51°54' W 008°27'0 0.0
2016-Jun-27 21:31N 51°54' W 008°27'0 0.0
2016-Jun-27 20:31N 51°54' W 008°27'0 0.0
2016-Jun-27 19:31N 51°54' W 008°27'0 0.0
2016-Jun-27 18:31N 51°54' W 008°27'0 0.0
2016-Jun-27 17:28N 51°54' W 008°27'0 0.0
2016-Jun-27 16:31N 51°54' W 008°27'0 0.0
2016-Jun-27 15:31N 51°54' W 008°27'0 0.0
2016-Jun-27 14:31N 51°54' W 008°27'0 0.0
2016-Jun-27 13:31N 51°54' W 008°27'0 0.0
2016-Jun-27 12:31N 51°54' W 008°27'0 0.0
2016-Jun-27 11:31N 51°54' W 008°27'0 0.0
2016-Jun-27 10:28N 51°54' W 008°27'0 0.0
2016-Jun-27 09:31N 51°54' W 008°27'0 0.0
2016-Jun-27 08:31N 51°54' W 008°27'0 0.0
2016-Jun-27 07:25N 51°54' W 008°27'0 0.1
2016-Jun-27 06:31N 51°54' W 008°27'5 5.5
2016-Jun-27 05:33N 51°51' W 008°20'6 6.4
2016-Jun-27 04:33N 51°46' W 008°15'6 6.0
2016-Jun-27 03:33N 51°42' W 008°08'6 6.1
2016-Jun-27 02:33N 51°37' W 008°01'7 7.1
2016-Jun-27 01:33N 51°32' W 007°53'8 8.2
2016-Jun-27 00:33N 51°26' W 007°44'8 7.9
2016-Jun-26 23:29N 51°21' W 007°34'35 8.1
2016-Jun-26 19:06N 50°57' W 006°53'4 7.9
2016-Jun-26 18:33N 50°54' W 006°48'18 8.2
2016-Jun-26 16:21N 50°41' W 006°28'69 8.3
2016-Jun-26 08:05N 49°55' W 005°08'610.5
2016-Jun-26 07:30N 49°56' W 004°58'2211.0
2016-Jun-26 05:32N 50°01' W 004°26'1211.7
2016-Jun-26 04:33N 50°04' W 004°08'1212.2
2016-Jun-26 03:33N 50°07' W 003°50'1212.5
2016-Jun-26 02:33N 50°10' W 003°31'1111.3
2016-Jun-26 01:34N 50°12' W 003°14'1010.3
2016-Jun-26 00:33N 50°14' W 002°58'10 9.6
2016-Jun-25 23:33N 50°15' W 002°43'6610.9
2016-Jun-25 17:31N 50°26' W 001°01'1313.6
2016-Jun-25 16:34N 50°28' W 000°40'1312.4
2016-Jun-25 15:31N 50°30' W 000°20'1111.5
2016-Jun-25 14:34N 50°32' W 000°03'5010.0
2016-Jun-25 09:33N 50°54' E 001°08'1312.5
2016-Jun-25 08:34N 51°02' E 001°23'1212.3
2016-Jun-25 07:34N 51°10' E 001°38'1110.9
2016-Jun-25 06:33N 51°18' E 001°50'10 9.7
2016-Jun-25 05:33N 51°25' E 002°01'1110.8
2016-Jun-25 04:33N 51°21' E 002°16'9 9.3
2016-Jun-25 03:32N 51°23' E 002°31'9 8.8
2016-Jun-25 02:33N 51°23' E 002°45'10 9.5
2016-Jun-25 01:33N 51°24' E 003°00'1010.1
2016-Jun-25 00:33N 51°25' E 003°16'1010.6
2016-Jun-24 23:34N 51°26' E 003°33'9 9.1
2016-Jun-24 22:34N 51°22' E 003°46'3 3.0
2016-Jun-24 21:33N 51°19' E 003°49'2 1.5
2016-Jun-24 20:31N 51°18' E 003°50'0 0.0
2016-Jun-24 19:31N 51°18' E 003°50'0 0.0
2016-Jun-24 18:31N 51°18' E 003°50'0 0.0
2016-Jun-24 17:31N 51°18' E 003°50'0 0.0
2016-Jun-24 16:31N 51°18' E 003°50'0 0.0
2016-Jun-24 15:31N 51°18' E 003°50'0 0.0
2016-Jun-24 14:31N 51°18' E 003°50'0 0.0
2016-Jun-24 13:31N 51°18' E 003°50'0 0.0
2016-Jun-24 12:31N 51°18' E 003°50'0 0.0
2016-Jun-24 11:28N 51°18' E 003°50'0 0.0
2016-Jun-24 10:31N 51°18' E 003°50'0 0.0
2016-Jun-24 09:28N 51°18' E 003°50'0 0.0
2016-Jun-24 08:31N 51°18' E 003°50'0 0.0
2016-Jun-24 07:31N 51°18' E 003°50'0 0.0
2016-Jun-24 06:31N 51°18' E 003°50'0 0.0
2016-Jun-24 04:28N 51°18' E 003°50'0 0.0
2016-Jun-24 03:31N 51°18' E 003°50'0 0.0
2016-Jun-24 02:31N 51°18' E 003°50'0 0.0
2016-Jun-24 01:31N 51°18' E 003°50'0 0.0
2016-Jun-24 00:31N 51°18' E 003°50'0 0.0
2016-Jun-23 23:31N 51°18' E 003°50'0 0.0
2016-Jun-23 22:31N 51°18' E 003°50'0 0.0
2016-Jun-23 21:25N 51°18' E 003°50'0 0.0
2016-Jun-23 20:28N 51°18' E 003°50'0 0.0
2016-Jun-23 19:31N 51°18' E 003°50'0 0.0
2016-Jun-23 18:31N 51°18' E 003°50'0 0.0
2016-Jun-23 17:31N 51°18' E 003°50'0 0.0
2016-Jun-23 16:31N 51°18' E 003°50'0 0.0
2016-Jun-23 15:31N 51°18' E 003°50'0 0.0
2016-Jun-23 14:28N 51°18' E 003°50'0 0.0
2016-Jun-23 13:31N 51°18' E 003°50'0 0.0
2016-Jun-23 12:31N 51°18' E 003°50'0 0.0
2016-Jun-23 11:31N 51°18' E 003°50'0 0.0
2016-Jun-23 10:28N 51°18' E 003°50'0 0.0
2016-Jun-23 09:31N 51°18' E 003°50'0 0.0
2016-Jun-23 08:31N 51°18' E 003°50'0 0.0
2016-Jun-23 07:28N 51°18' E 003°50'0 0.0
2016-Jun-23 05:31N 51°18' E 003°50'0 0.0
2016-Jun-23 04:31N 51°18' E 003°50'0 0.0
2016-Jun-23 03:25N 51°18' E 003°50'0 0.0
2016-Jun-23 02:28N 51°18' E 003°50'0 0.0
2016-Jun-23 01:31N 51°18' E 003°50'0 0.0
2016-Jun-23 00:28N 51°18' E 003°50'0 0.0
2016-Jun-22 23:31N 51°18' E 003°50'0 0.0
2016-Jun-22 22:22N 51°18' E 003°50'0 0.0
2016-Jun-22 21:25N 51°18' E 003°50'0 0.0
2016-Jun-22 20:25N 51°18' E 003°50'0 0.0
2016-Jun-22 19:22N 51°18' E 003°50'0 0.0
2016-Jun-22 18:31N 51°18' E 003°50'0 0.0
2016-Jun-22 17:25N 51°18' E 003°50'0 0.0
2016-Jun-22 16:22N 51°18' E 003°50'0 0.0
2016-Jun-22 15:28N 51°18' E 003°50'0 0.0
2016-Jun-22 14:31N 51°18' E 003°50'0 0.0
2016-Jun-22 13:31N 51°18' E 003°50'0 0.0
2016-Jun-22 12:31N 51°18' E 003°50'0 0.0
2016-Jun-22 11:28N 51°18' E 003°50'0 0.0
2016-Jun-22 10:31N 51°18' E 003°50'0 0.0
2016-Jun-22 09:31N 51°18' E 003°50'0 0.0
2016-Jun-22 08:31N 51°18' E 003°50'0 0.0
2016-Jun-22 07:31N 51°18' E 003°50'0 0.0
2016-Jun-22 06:34N 51°18' E 003°50'0 0.0
2016-Jun-22 05:28N 51°18' E 003°50'0 0.0
2016-Jun-22 04:31N 51°18' E 003°50'0 0.0
2016-Jun-22 03:31N 51°18' E 003°50'0 0.0
2016-Jun-22 02:31N 51°18' E 003°50'0 0.0
2016-Jun-22 01:31N 51°18' E 003°50'0 0.0
2016-Jun-22 00:28N 51°18' E 003°50'0 0.0
2016-Jun-21 23:33N 51°18' E 003°50'1 1.4
2016-Jun-21 22:34N 51°17' E 003°50'3 2.8
2016-Jun-21 21:33N 51°14' E 003°48'0 0.0
2016-Jun-21 20:33N 51°14' E 003°48'0 0.0
2016-Jun-21 19:33N 51°14' E 003°48'0 0.0
2016-Jun-21 18:33N 51°14' E 003°48'0 0.0
2016-Jun-21 17:33N 51°14' E 003°48'0 0.0
2016-Jun-21 16:33N 51°14' E 003°48'0 0.0
2016-Jun-21 15:33N 51°14' E 003°48'0 0.0
2016-Jun-21 14:33N 51°14' E 003°48'0 0.0
2016-Jun-21 13:33N 51°14' E 003°48'0 0.0
2016-Jun-21 12:33N 51°14' E 003°48'0 0.0
2016-Jun-21 11:33N 51°14' E 003°48'0 0.0
2016-Jun-21 10:33N 51°14' E 003°48'0 0.0
2016-Jun-21 09:33N 51°14' E 003°48'0 0.0
2016-Jun-21 08:33N 51°14' E 003°48'0 0.0
2016-Jun-21 07:33N 51°14' E 003°48'0 0.0
2016-Jun-21 04:33N 51°14' E 003°48'0 0.0
2016-Jun-21 03:33N 51°14' E 003°48'0 0.0
2016-Jun-21 02:33N 51°14' E 003°48'0 0.0
2016-Jun-21 01:33N 51°14' E 003°48'0 0.0
2016-Jun-21 00:33N 51°14' E 003°48'0 0.0
2016-Jun-20 23:33N 51°14' E 003°48'0 0.0
2016-Jun-20 22:33N 51°14' E 003°48'0 0.0
2016-Jun-20 21:33N 51°14' E 003°48'0 0.0
2016-Jun-20 20:33N 51°14' E 003°48'0 0.0
2016-Jun-20 19:33N 51°14' E 003°48'0 0.0
2016-Jun-20 18:33N 51°14' E 003°48'0 0.0
2016-Jun-20 17:31N 51°14' E 003°48'0 0.0
2016-Jun-20 16:31N 51°14' E 003°48'0 0.0
2016-Jun-20 15:31N 51°14' E 003°48'0 0.0
2016-Jun-20 14:31N 51°14' E 003°48'0 0.0
2016-Jun-20 13:31N 51°14' E 003°48'0 0.0
2016-Jun-20 12:31N 51°14' E 003°48'0 0.0
2016-Jun-20 11:31N 51°14' E 003°48'0 0.0
2016-Jun-20 10:31N 51°14' E 003°48'0 0.0
2016-Jun-20 09:31N 51°14' E 003°48'0 0.0
2016-Jun-20 08:31N 51°14' E 003°48'0 0.0
2016-Jun-20 07:31N 51°14' E 003°48'0 0.0
2016-Jun-20 06:31N 51°14' E 003°48'0 0.0
2016-Jun-20 05:31N 51°14' E 003°48'0 0.0
2016-Jun-20 04:31N 51°14' E 003°48'0 0.0
2016-Jun-20 03:31N 51°14' E 003°48'0 0.0
2016-Jun-20 02:31N 51°14' E 003°48'0 0.0
2016-Jun-20 01:31N 51°14' E 003°48'0 0.0
2016-Jun-20 00:31N 51°14' E 003°48'0 0.0
2016-Jun-19 23:31N 51°14' E 003°48'0 0.0
2016-Jun-19 22:31N 51°14' E 003°48'0 0.0
2016-Jun-19 21:31N 51°14' E 003°48'0 0.0
2016-Jun-19 20:31N 51°14' E 003°48'0 0.0
2016-Jun-19 19:31N 51°14' E 003°48'0 0.0
2016-Jun-19 18:31N 51°14' E 003°48'0 0.0
2016-Jun-19 17:31N 51°14' E 003°48'0 0.0
2016-Jun-19 16:31N 51°14' E 003°48'0 0.0
2016-Jun-19 15:31N 51°14' E 003°48'0 0.0
2016-Jun-19 14:31N 51°14' E 003°48'0 0.0
2016-Jun-19 13:31N 51°14' E 003°48'0 0.0
2016-Jun-19 12:31N 51°14' E 003°48'0 0.0
2016-Jun-19 11:31N 51°14' E 003°48'0 0.0
2016-Jun-19 10:31N 51°14' E 003°48'0 0.0
2016-Jun-19 09:31N 51°14' E 003°48'  

Dump ship's entire track history